sensor_id;sensor_type;location;lat;lon;timestamp;temperature;humidity
73438;DHT22;66471;56.532;21.020;2023-12-04T06:24:18;-1.30;99.90
73438;DHT22;66471;56.532;21.020;2023-12-04T06:26:49;-1.40;99.90
73438;DHT22;66471;56.532;21.020;2023-12-04T06:29:18;-1.10;99.90
73438;DHT22;66471;56.532;21.020;2023-12-04T06:31:46;-1.20;99.90
73438;DHT22;66471;56.532;21.020;2023-12-04T06:34:14;-0.90;99.90
73438;DHT22;66471;56.532;21.020;2023-12-04T06:36:41;-1.10;99.90
73438;DHT22;66471;56.532;21.020;2023-12-04T06:39:10;-1.00;99.90
73438;DHT22;66471;56.532;21.020;2023-12-04T06:41:40;-1.10;99.90
73438;DHT22;66471;56.532;21.020;2023-12-04T06:44:08;-0.90;99.90
73438;DHT22;66471;56.532;21.020;2023-12-04T06:46:39;-1.10;99.90
73438;DHT22;66471;56.532;21.020;2023-12-04T06:49:06;-1.10;99.90
73438;DHT22;66471;56.532;21.020;2023-12-04T06:51:36;-0.70;99.90
73438;DHT22;66471;56.532;21.020;2023-12-04T06:54:03;-0.90;99.90
73438;DHT22;66471;56.532;21.020;2023-12-04T06:56:30;-1.00;99.90
73438;DHT22;66471;56.532;21.020;2023-12-04T06:58:57;-0.70;99.90
73438;DHT22;66471;56.532;21.020;2023-12-04T07:01:25;-0.80;99.90
73438;DHT22;66471;56.532;21.020;2023-12-04T07:03:53;-0.70;99.90
73438;DHT22;66471;56.532;21.020;2023-12-04T07:06:21;-0.70;99.90
73438;DHT22;66471;56.532;21.020;2023-12-04T07:08:48;-0.60;99.90
73438;DHT22;66471;56.532;21.020;2023-12-04T07:11:15;-0.40;99.90
73438;DHT22;66471;56.532;21.020;2023-12-04T07:13:43;-0.40;99.90
73438;DHT22;66471;56.532;21.020;2023-12-04T07:16:10;-0.50;99.90
73438;DHT22;66471;56.532;21.020;2023-12-04T07:18:37;-0.40;99.90
73438;DHT22;66471;56.532;21.020;2023-12-04T07:21:05;-0.40;99.90
73438;DHT22;66471;56.532;21.020;2023-12-04T07:23:32;-0.20;99.90
73438;DHT22;66471;56.532;21.020;2023-12-04T07:25:59;-0.50;99.90
73438;DHT22;66471;56.532;21.020;2023-12-04T07:28:27;-0.50;99.90
73438;DHT22;66471;56.532;21.020;2023-12-04T07:30:55;-0.30;99.90
73438;DHT22;66471;56.532;21.020;2023-12-04T07:33:23;-0.50;99.90
73438;DHT22;66471;56.532;21.020;2023-12-04T07:35:50;-0.60;99.90
73438;DHT22;66471;56.532;21.020;2023-12-04T07:38:18;-0.50;99.90
73438;DHT22;66471;56.532;21.020;2023-12-04T07:40:46;-0.60;99.90
73438;DHT22;66471;56.532;21.020;2023-12-04T07:43:13;-0.60;99.90
73438;DHT22;66471;56.532;21.020;2023-12-04T07:45:44;-0.70;99.90
73438;DHT22;66471;56.532;21.020;2023-12-04T07:48:11;-0.80;99.90
73438;DHT22;66471;56.532;21.020;2023-12-04T07:50:39;-0.60;99.90
73438;DHT22;66471;56.532;21.020;2023-12-04T07:53:06;-0.80;99.90
73438;DHT22;66471;56.532;21.020;2023-12-04T07:55:36;-0.60;99.90
73438;DHT22;66471;56.532;21.020;2023-12-04T07:58:03;-0.70;99.90
73438;DHT22;66471;56.532;21.020;2023-12-04T08:00:31;-0.50;99.90
73438;DHT22;66471;56.532;21.020;2023-12-04T08:02:59;-0.50;99.90
73438;DHT22;66471;56.532;21.020;2023-12-04T08:05:28;-0.60;99.90
73438;DHT22;66471;56.532;21.020;2023-12-04T08:07:58;-0.60;99.90
73438;DHT22;66471;56.532;21.020;2023-12-04T08:10:25;-0.30;99.90
73438;DHT22;66471;56.532;21.020;2023-12-04T08:12:53;-0.40;99.90
73438;DHT22;66471;56.532;21.020;2023-12-04T08:15:20;-0.30;99.90
73438;DHT22;66471;56.532;21.020;2023-12-04T08:17:47;-0.40;99.90
73438;DHT22;66471;56.532;21.020;2023-12-04T08:20:15;-0.40;99.90
73438;DHT22;66471;56.532;21.020;2023-12-04T08:22:53;-0.30;99.90
73438;DHT22;66471;56.532;21.020;2023-12-04T08:25:21;-0.30;99.90
73438;DHT22;66471;56.532;21.020;2023-12-04T08:27:48;-0.40;99.90
73438;DHT22;66471;56.532;21.020;2023-12-04T08:30:17;-0.40;99.90
73438;DHT22;66471;56.532;21.020;2023-12-04T08:32:44;-0.30;99.90
73438;DHT22;66471;56.532;21.020;2023-12-04T08:35:11;-0.40;99.90
73438;DHT22;66471;56.532;21.020;2023-12-04T08:37:38;-0.40;99.90
73438;DHT22;66471;56.532;21.020;2023-12-04T08:40:06;-0.40;99.90
73438;DHT22;66471;56.532;21.020;2023-12-04T08:42:35;0.00;99.90
73438;DHT22;66471;56.532;21.020;2023-12-04T08:45:02;-0.30;99.90
73438;DHT22;66471;56.532;21.020;2023-12-04T08:47:32;0.10;99.90
73438;DHT22;66471;56.532;21.020;2023-12-04T08:50:00;-0.10;99.90
73438;DHT22;66471;56.532;21.020;2023-12-04T08:52:28;0.10;99.90
73438;DHT22;66471;56.532;21.020;2023-12-04T08:54:56;0.10;99.90
73438;DHT22;66471;56.532;21.020;2023-12-04T08:57:23;0.10;99.90
73438;DHT22;66471;56.532;21.020;2023-12-04T08:59:50;0.00;99.90
73438;DHT22;66471;56.532;21.020;2023-12-04T09:02:17;-0.10;99.90
73438;DHT22;66471;56.532;21.020;2023-12-04T09:04:45;-0.10;99.90
73438;DHT22;66471;56.532;21.020;2023-12-04T09:07:12;-0.30;99.90
73438;DHT22;66471;56.532;21.020;2023-12-04T09:09:59;0.00;99.90
73438;DHT22;66471;56.532;21.020;2023-12-04T09:12:36;0.00;99.90
73438;DHT22;66471;56.532;21.020;2023-12-04T09:15:05;0.00;99.90
73438;DHT22;66471;56.532;21.020;2023-12-04T09:17:35;0.20;99.90
73438;DHT22;66471;56.532;21.020;2023-12-04T09:20:06;0.30;99.90
73438;DHT22;66471;56.532;21.020;2023-12-04T09:22:33;0.60;99.90
73438;DHT22;66471;56.532;21.020;2023-12-04T09:25:16;0.20;99.90
73438;DHT22;66471;56.532;21.020;2023-12-04T09:27:43;0.20;99.90
73438;DHT22;66471;56.532;21.020;2023-12-04T09:30:10;0.10;99.90
73438;DHT22;66471;56.532;21.020;2023-12-04T09:32:38;0.30;99.90
73438;DHT22;66471;56.532;21.020;2023-12-04T09:35:05;0.10;99.90
73438;DHT22;66471;56.532;21.020;2023-12-04T09:37:33;0.30;99.90
73438;DHT22;66471;56.532;21.020;2023-12-04T09:40:01;0.20;99.90
73438;DHT22;66471;56.532;21.020;2023-12-04T09:42:31;0.30;99.30
73438;DHT22;66471;56.532;21.020;2023-12-04T09:45:05;0.30;99.80
73438;DHT22;66471;56.532;21.020;2023-12-04T09:47:33;0.20;98.90
73438;DHT22;66471;56.532;21.020;2023-12-04T09:50:01;0.10;97.30
73438;DHT22;66471;56.532;21.020;2023-12-04T09:52:29;0.30;96.60
73438;DHT22;66471;56.532;21.020;2023-12-04T09:54:58;0.30;95.40
73438;DHT22;66471;56.532;21.020;2023-12-04T09:57:25;0.30;94.60
73438;DHT22;66471;56.532;21.020;2023-12-04T09:59:53;0.40;94.60
73438;DHT22;66471;56.532;21.020;2023-12-04T10:02:20;0.40;94.10
73438;DHT22;66471;56.532;21.020;2023-12-04T10:04:48;0.60;95.00
73438;DHT22;66471;56.532;21.020;2023-12-04T10:07:16;0.70;95.80
73438;DHT22;66471;56.532;21.020;2023-12-04T10:09:43;0.80;96.30
73438;DHT22;66471;56.532;21.020;2023-12-04T10:12:11;0.80;96.40
73438;DHT22;66471;56.532;21.020;2023-12-04T10:14:38;0.90;95.70
73438;DHT22;66471;56.532;21.020;2023-12-04T10:17:15;1.00;96.40
73438;DHT22;66471;56.532;21.020;2023-12-04T10:19:45;0.90;97.50
73438;DHT22;66471;56.532;21.020;2023-12-04T10:22:12;1.10;95.80
73438;DHT22;66471;56.532;21.020;2023-12-04T10:24:41;1.10;93.60
73438;DHT22;66471;56.532;21.020;2023-12-04T10:27:09;1.30;93.30
73438;DHT22;66471;56.532;21.020;2023-12-04T10:29:42;1.50;94.00
73438;DHT22;66471;56.532;21.020;2023-12-04T10:32:10;1.10;91.90
73438;DHT22;66471;56.532;21.020;2023-12-04T10:34:37;1.30;93.00
73438;DHT22;66471;56.532;21.020;2023-12-04T10:37:06;1.20;92.30
73438;DHT22;66471;56.532;21.020;2023-12-04T10:39:49;1.20;91.50
73438;DHT22;66471;56.532;21.020;2023-12-04T10:42:27;1.10;92.20
73438;DHT22;66471;56.532;21.020;2023-12-04T10:44:56;1.00;93.70
73438;DHT22;66471;56.532;21.020;2023-12-04T10:47:29;1.20;92.80
73438;DHT22;66471;56.532;21.020;2023-12-04T10:50:03;1.20;93.80
73438;DHT22;66471;56.532;21.020;2023-12-04T10:52:31;1.50;93.30
73438;DHT22;66471;56.532;21.020;2023-12-04T10:54:59;1.10;92.30
73438;DHT22;66471;56.532;21.020;2023-12-04T10:57:37;0.90;92.40
73438;DHT22;66471;56.532;21.020;2023-12-04T11:00:06;0.70;92.30
73438;DHT22;66471;56.532;21.020;2023-12-04T11:02:39;0.80;92.40
73438;DHT22;66471;56.532;21.020;2023-12-04T11:05:15;0.80;93.30
73438;DHT22;66471;56.532;21.020;2023-12-04T11:07:51;0.50;92.90
73438;DHT22;66471;56.532;21.020;2023-12-04T11:11:02;0.30;94.30
73438;DHT22;66471;56.532;21.020;2023-12-04T11:13:42;0.40;93.60
73438;DHT22;66471;56.532;21.020;2023-12-04T11:19:20;0.50;92.60
73438;DHT22;66471;56.532;21.020;2023-12-04T11:21:49;0.50;91.40
73438;DHT22;66471;56.532;21.020;2023-12-04T11:24:21;0.60;91.20
73438;DHT22;66471;56.532;21.020;2023-12-04T11:26:49;0.50;91.90
73438;DHT22;66471;56.532;21.020;2023-12-04T11:29:17;0.60;91.70
73438;DHT22;66471;56.532;21.020;2023-12-04T11:31:46;0.80;90.90
73438;DHT22;66471;56.532;21.020;2023-12-04T11:34:20;0.70;90.70
73438;DHT22;66471;56.532;21.020;2023-12-04T11:36:51;0.80;91.30
73438;DHT22;66471;56.532;21.020;2023-12-04T11:39:21;0.60;90.60
73438;DHT22;66471;56.532;21.020;2023-12-04T11:41:50;0.60;90.50
73438;DHT22;66471;56.532;21.020;2023-12-04T11:44:18;0.60;89.90
73438;DHT22;66471;56.532;21.020;2023-12-04T11:47:03;0.50;89.20
73438;DHT22;66471;56.532;21.020;2023-12-04T11:49:32;0.70;88.70
73438;DHT22;66471;56.532;21.020;2023-12-04T11:52:04;0.40;89.10
73438;DHT22;66471;56.532;21.020;2023-12-04T11:55:00;0.40;88.30
73438;DHT22;66471;56.532;21.020;2023-12-04T11:57:50;0.50;88.90
73438;DHT22;66471;56.532;21.020;2023-12-04T12:00:23;0.20;89.00
73438;DHT22;66471;56.532;21.020;2023-12-04T12:05:41;0.50;90.00
73438;DHT22;66471;56.532;21.020;2023-12-04T12:08:10;0.70;90.30
73438;DHT22;66471;56.532;21.020;2023-12-04T12:10:38;0.60;90.80
73438;DHT22;66471;56.532;21.020;2023-12-04T12:13:07;0.50;89.90
73438;DHT22;66471;56.532;21.020;2023-12-04T12:15:35;0.60;89.20
73438;DHT22;66471;56.532;21.020;2023-12-04T12:18:06;0.50;88.80
73438;DHT22;66471;56.532;21.020;2023-12-04T12:20:36;0.60;88.60
73438;DHT22;66471;56.532;21.020;2023-12-04T12:23:06;0.50;89.30
73438;DHT22;66471;56.532;21.020;2023-12-04T12:25:35;0.30;89.00
73438;DHT22;66471;56.532;21.020;2023-12-04T12:28:03;0.10;89.70
73438;DHT22;66471;56.532;21.020;2023-12-04T12:30:31;0.00;89.80
73438;DHT22;66471;56.532;21.020;2023-12-04T12:32:59;0.00;89.70
73438;DHT22;66471;56.532;21.020;2023-12-04T15:10:03;0.00;92.80
73438;DHT22;66471;56.532;21.020;2023-12-04T15:12:49;0.00;90.30
73438;DHT22;66471;56.532;21.020;2023-12-04T15:15:55;0.00;91.00
73438;DHT22;66471;56.532;21.020;2023-12-04T15:18:40;0.10;92.70
73438;DHT22;66471;56.532;21.020;2023-12-04T15:21:20;0.10;92.40
73438;DHT22;66471;56.532;21.020;2023-12-04T15:23:49;0.00;90.90
73438;DHT22;66471;56.532;21.020;2023-12-04T15:26:17;-0.20;91.40
73438;DHT22;66471;56.532;21.020;2023-12-04T15:28:44;-0.10;92.30
73438;DHT22;66471;56.532;21.020;2023-12-04T15:31:15;-0.50;93.60
73438;DHT22;66471;56.532;21.020;2023-12-04T15:33:42;-0.70;94.60
73438;DHT22;66471;56.532;21.020;2023-12-04T15:36:09;-0.50;94.40
73438;DHT22;66471;56.532;21.020;2023-12-04T15:38:37;-0.60;93.20
73438;DHT22;66471;56.532;21.020;2023-12-04T15:41:05;-0.60;93.70
73438;DHT22;66471;56.532;21.020;2023-12-04T15:43:32;-0.60;94.00
73438;DHT22;66471;56.532;21.020;2023-12-04T15:45:59;-0.50;93.30
73438;DHT22;66471;56.532;21.020;2023-12-04T15:48:27;-0.50;91.00
73438;DHT22;66471;56.532;21.020;2023-12-04T15:50:54;-0.50;89.20
73438;DHT22;66471;56.532;21.020;2023-12-04T15:53:21;-0.40;88.30
73438;DHT22;66471;56.532;21.020;2023-12-04T15:55:48;-0.60;89.20
73438;DHT22;66471;56.532;21.020;2023-12-04T15:58:15;-0.40;89.80
73438;DHT22;66471;56.532;21.020;2023-12-04T16:00:43;-0.70;90.40
73438;DHT22;66471;56.532;21.020;2023-12-04T16:03:10;-0.50;90.40
73438;DHT22;66471;56.532;21.020;2023-12-04T16:05:38;-0.70;90.10
73438;DHT22;66471;56.532;21.020;2023-12-04T16:08:05;-0.70;90.10
73438;DHT22;66471;56.532;21.020;2023-12-04T16:10:33;-0.60;89.00
73438;DHT22;66471;56.532;21.020;2023-12-04T16:13:02;-0.50;87.30
73438;DHT22;66471;56.532;21.020;2023-12-04T16:15:30;-0.60;88.40
73438;DHT22;66471;56.532;21.020;2023-12-04T16:17:57;-0.40;89.40
73438;DHT22;66471;56.532;21.020;2023-12-04T16:20:24;-0.30;90.10
73438;DHT22;66471;56.532;21.020;2023-12-04T16:22:51;-0.60;91.10
73438;DHT22;66471;56.532;21.020;2023-12-04T16:25:19;-0.60;90.60
73438;DHT22;66471;56.532;21.020;2023-12-04T16:27:48;-0.60;90.10
73438;DHT22;66471;56.532;21.020;2023-12-04T16:30:15;-0.50;90.50
73438;DHT22;66471;56.532;21.020;2023-12-04T16:32:43;-0.40;91.20
73438;DHT22;66471;56.532;21.020;2023-12-04T16:35:10;-0.40;90.70
73438;DHT22;66471;56.532;21.020;2023-12-04T16:37:38;-0.50;90.20
73438;DHT22;66471;56.532;21.020;2023-12-04T16:40:08;-0.60;90.50
73438;DHT22;66471;56.532;21.020;2023-12-04T16:42:36;-0.50;90.30
73438;DHT22;66471;56.532;21.020;2023-12-04T16:45:04;-0.50;89.50
73438;DHT22;66471;56.532;21.020;2023-12-04T16:47:32;-0.70;88.90
73438;DHT22;66471;56.532;21.020;2023-12-04T16:49:59;-0.50;87.90
73438;DHT22;66471;56.532;21.020;2023-12-04T16:52:26;-0.60;88.60
73438;DHT22;66471;56.532;21.020;2023-12-04T16:54:55;-0.50;88.50
73438;DHT22;66471;56.532;21.020;2023-12-04T16:57:22;-0.50;88.00
73438;DHT22;66471;56.532;21.020;2023-12-04T16:59:50;-0.60;88.20
73438;DHT22;66471;56.532;21.020;2023-12-04T17:02:20;-0.70;88.60
73438;DHT22;66471;56.532;21.020;2023-12-04T17:04:47;-0.70;89.70
73438;DHT22;66471;56.532;21.020;2023-12-04T17:07:17;-0.60;91.20
73438;DHT22;66471;56.532;21.020;2023-12-04T17:09:44;-0.70;91.90
73438;DHT22;66471;56.532;21.020;2023-12-04T17:12:11;-0.60;91.80
73438;DHT22;66471;56.532;21.020;2023-12-04T17:14:40;-0.60;91.40
73438;DHT22;66471;56.532;21.020;2023-12-04T17:17:07;-0.70;91.10
73438;DHT22;66471;56.532;21.020;2023-12-04T17:19:34;-0.60;91.00
73438;DHT22;66471;56.532;21.020;2023-12-04T17:22:02;-0.50;91.10
73438;DHT22;66471;56.532;21.020;2023-12-04T17:24:30;-0.60;90.30
73438;DHT22;66471;56.532;21.020;2023-12-04T17:26:57;-0.70;89.80
73438;DHT22;66471;56.532;21.020;2023-12-04T17:29:24;-0.70;89.50
73438;DHT22;66471;56.532;21.020;2023-12-04T17:31:52;-0.70;89.70
73438;DHT22;66471;56.532;21.020;2023-12-04T17:34:20;-0.60;89.80
73438;DHT22;66471;56.532;21.020;2023-12-04T17:36:47;-0.50;90.50
73438;DHT22;66471;56.532;21.020;2023-12-04T17:39:14;-0.80;90.50
73438;DHT22;66471;56.532;21.020;2023-12-04T17:41:44;-0.80;90.50
73438;DHT22;66471;56.532;21.020;2023-12-04T17:44:14;-0.70;90.80
73438;DHT22;66471;56.532;21.020;2023-12-04T17:46:41;-0.60;91.00
73438;DHT22;66471;56.532;21.020;2023-12-04T17:49:08;-0.80;91.10
73438;DHT22;66471;56.532;21.020;2023-12-04T17:51:36;-0.70;91.70
73438;DHT22;66471;56.532;21.020;2023-12-04T17:54:03;-0.70;91.60
73438;DHT22;66471;56.532;21.020;2023-12-04T17:56:31;-0.70;91.70
73438;DHT22;66471;56.532;21.020;2023-12-04T17:59:00;-0.60;92.00
